createdAt,value
2023-10-29T00:00:47.872Z,16.35
2023-10-29T00:11:18.490Z,11.65
2023-10-29T00:21:20.618Z,10.77
2023-10-29T00:31:22.566Z,20.02
2023-10-29T00:41:24.642Z,12.77
2023-10-29T00:51:27.579Z,16.50
2023-10-29T01:01:29.762Z,11.00
2023-10-29T01:11:31.771Z,12.20
2023-10-29T01:21:34.116Z,20.25
2023-10-29T01:31:36.052Z,12.60
2023-10-29T01:41:37.885Z,22.17
2023-10-29T01:51:39.781Z,17.75
2023-10-29T02:01:42.284Z,20.17
2023-10-29T02:11:44.144Z,22.42
2023-10-29T02:21:46.104Z,19.67
2023-10-29T02:31:48.390Z,13.75
2023-10-29T02:41:50.514Z,13.73
2023-10-29T02:51:52.435Z,22.77
2023-10-29T03:01:54.481Z,20.60
2023-10-29T03:11:56.435Z,14.88
2023-10-29T03:21:58.463Z,19.08
2023-10-29T03:32:00.413Z,18.33
2023-10-29T03:42:02.818Z,22.35
2023-10-29T03:52:04.925Z,21.63
2023-10-29T04:02:10.056Z,24.38
2023-10-29T04:12:11.925Z,13.52
2023-10-29T04:22:13.761Z,13.45
2023-10-29T04:32:15.543Z,17.83
2023-10-29T04:42:17.491Z,17.17
2023-10-29T04:52:19.379Z,11.43
2023-10-29T05:02:21.249Z,15.73
2023-10-29T05:12:23.216Z,30.23
2023-10-29T05:22:25.029Z,23.52
2023-10-29T05:32:30.095Z,19.52
2023-10-29T05:42:32.322Z,22.85
2023-10-29T05:52:34.384Z,21.65
2023-10-29T06:02:36.448Z,38.78
2023-10-29T06:12:38.424Z,39.65
2023-10-29T06:22:40.319Z,35.95
2023-10-29T06:32:42.613Z,33.30
2023-10-29T06:42:44.687Z,54.70
2023-10-29T06:52:46.870Z,41.13
2023-10-29T07:02:49.206Z,53.70
2023-10-29T07:12:51.126Z,42.22
2023-10-29T07:22:53.164Z,14.52
2023-10-29T07:33:18.014Z,13.90
2023-10-29T07:43:26.781Z,7.78
2023-10-29T07:53:28.705Z,12.57
2023-10-29T08:03:33.699Z,14.60
2023-10-29T08:13:45.995Z,11.68
2023-10-29T08:23:51.537Z,10.93
2023-10-29T08:33:54.404Z,15.65
2023-10-29T08:54:48.458Z,12.85
2023-10-29T09:04:59.408Z,11.10
2023-10-29T09:15:18.060Z,10.70
2023-10-29T09:25:55.404Z,7.97
2023-10-29T09:36:00.892Z,13.52
2023-10-29T09:46:08.968Z,7.43
2023-10-29T11:02:48.033Z,6.55
2023-10-29T11:12:50.146Z,7.70
2023-10-29T11:22:52.831Z,7.28
2023-10-29T11:33:13.642Z,10.15
2023-10-29T11:43:20.549Z,10.77
2023-10-29T11:53:25.947Z,9.13
2023-10-29T12:03:28.397Z,5.60
2023-10-29T12:13:43.695Z,8.63
2023-10-29T12:23:45.628Z,13.35
2023-10-29T12:33:56.106Z,10.93
2023-10-29T12:43:58.297Z,7.05
2023-10-29T12:54:22.623Z,7.65
2023-10-29T13:04:25.841Z,12.65
2023-10-29T13:14:32.680Z,8.57
2023-10-29T13:24:37.274Z,5.93
2023-10-29T13:34:39.181Z,8.43
2023-10-29T13:44:41.561Z,8.20
2023-10-29T13:54:43.574Z,11.02
2023-10-29T14:04:45.696Z,15.13
2023-10-29T14:14:48.076Z,11.52
2023-10-29T14:24:58.162Z,17.52
2023-10-29T14:35:00.315Z,7.47
2023-10-29T14:45:02.320Z,15.38
2023-10-29T14:55:06.329Z,12.48
2023-10-29T15:05:08.772Z,27.00
2023-10-29T15:15:26.260Z,26.98
2023-10-29T15:25:32.536Z,17.13
2023-10-29T15:35:34.844Z,30.27
2023-10-29T15:45:39.372Z,31.27
2023-10-29T15:55:41.440Z,31.27
2023-10-29T16:05:43.955Z,33.17
2023-10-29T16:15:45.846Z,24.50
2023-10-29T16:25:47.844Z,67.93
2023-10-29T16:35:49.782Z,40.95
2023-10-29T16:45:51.672Z,44.47
2023-10-29T16:56:06.215Z,51.83
2023-10-29T17:06:08.562Z,32.58
2023-10-29T17:16:10.628Z,35.85
2023-10-29T17:26:19.540Z,36.50
2023-10-29T17:36:21.825Z,36.47
2023-10-29T17:46:23.948Z,92.65
2023-10-29T17:56:25.816Z,44.72
2023-10-29T18:06:27.639Z,63.35
2023-10-29T18:16:29.615Z,56.25
2023-10-29T18:26:31.559Z,28.25
2023-10-29T18:36:33.486Z,29.70
2023-10-29T18:46:37.629Z,31.23
2023-10-29T18:56:39.601Z,37.30
2023-10-29T19:06:44.862Z,43.78
2023-10-29T19:16:46.763Z,41.97
2023-10-29T19:26:48.624Z,39.50
2023-10-29T19:36:54.919Z,51.05
2023-10-29T19:47:03.240Z,49.03
2023-10-29T19:57:20.645Z,41.28
2023-10-29T20:08:06.157Z,34.00
2023-10-29T20:39:38.664Z,69.47
2023-10-29T20:49:56.494Z,60.73
2023-10-29T21:10:17.424Z,68.43
2023-10-29T21:30:42.909Z,84.55
2023-10-29T21:40:44.914Z,84.53
2023-10-29T21:50:57.167Z,73.05
2023-10-29T22:00:59.500Z,71.93
2023-10-29T22:11:04.107Z,59.58
2023-10-29T22:21:16.797Z,60.20
2023-10-29T22:31:41.610Z,77.90
2023-10-29T22:52:17.132Z,41.20
2023-10-29T23:02:30.710Z,40.40
2023-10-29T23:12:32.714Z,40.42
2023-10-29T23:22:34.720Z,29.88
2023-10-29T23:32:39.512Z,24.88
2023-10-29T23:42:41.533Z,29.90
2023-10-29T23:52:43.943Z,31.73
